Canadian Lakes, Michigan
Current Conditions -  °F | °C
As of 9:14 AM on Monday 24 Nov 2014 (Local Time) from KRQB Reporting Station
Light Rain Light Rain  
Wind Chill: 43°   Ceiling: 400
Heat Index: 47°   Visibility: 2.5mi
Dew Point: 47°   Wind: 7mph
Humidity: 100%   Direction: 230°SW
Pressure: 29.03"   Gusts: NA
Location:  43.5899°N, 85.4038°W
Report Text: KRQB 241414Z AUTO 23006KT 2 1/2SM -RA OVC004 08/08 A2903 RMK AO2 P0001 T00810081
Loading
Personal Weather Stations






























Interactive Weather Map New forecast layout! Learn more

10-Day Weather Forecast

Advertisements
Track Severe Weather on mobile